createdAt,value
2023-03-08T00:01:27.229Z,-3.84
2023-03-08T00:03:57.865Z,-3.72
2023-03-08T00:06:27.532Z,-3.59
2023-03-08T00:08:58.173Z,-3.59
2023-03-08T00:11:27.532Z,-3.58
2023-03-08T00:13:57.761Z,-3.63
2023-03-08T00:16:26.525Z,-3.57
2023-03-08T00:18:54.901Z,-3.50
2023-03-08T00:21:23.606Z,-3.60
2023-03-08T00:23:54.565Z,-3.59
2023-03-08T00:26:23.096Z,-3.62
2023-03-08T00:28:52.589Z,-3.62
2023-03-08T00:31:23.122Z,-3.53
2023-03-08T00:33:55.384Z,-3.58
2023-03-08T00:36:24.194Z,-3.49
2023-03-08T00:38:52.618Z,-3.47
2023-03-08T00:41:21.307Z,-3.60
2023-03-08T00:43:50.313Z,-3.66
2023-03-08T00:46:18.672Z,-3.72
2023-03-08T00:48:48.539Z,-3.86
2023-03-08T00:51:19.584Z,-3.67
2023-03-08T00:53:48.706Z,-3.65
2023-03-08T00:56:17.428Z,-3.70
2023-03-08T00:58:47.157Z,-3.83
2023-03-08T01:01:18.075Z,-3.74
2023-03-08T01:03:50.332Z,-3.71
2023-03-08T01:06:18.948Z,-3.55
2023-03-08T01:08:47.205Z,-3.48
2023-03-08T01:11:22.392Z,-3.49
2023-03-08T01:13:51.948Z,-3.37
2023-03-08T01:16:23.020Z,-3.35
2023-03-08T01:18:56.639Z,-3.38
2023-03-08T01:21:26.102Z,-3.40
2023-03-08T01:23:55.175Z,-3.39
2023-03-08T01:26:27.367Z,-3.52
2023-03-08T01:28:59.026Z,-3.70
2023-03-08T01:31:31.456Z,-3.65
2023-03-08T01:34:02.578Z,-3.60
2023-03-08T01:36:30.952Z,-3.48
2023-03-08T01:39:02.338Z,-3.38
2023-03-08T01:41:33.109Z,-3.30
2023-03-08T01:44:02.650Z,-3.36
2023-03-08T01:46:32.120Z,-3.43
2023-03-08T01:49:12.707Z,-3.47
2023-03-08T01:51:45.705Z,-3.50
2023-03-08T01:54:18.645Z,-3.33
2023-03-08T01:56:50.631Z,-3.32
2023-03-08T01:59:22.035Z,-3.28
2023-03-08T02:01:51.164Z,-3.32
2023-03-08T02:04:22.000Z,-3.27
2023-03-08T02:06:50.637Z,-3.22
2023-03-08T02:09:23.449Z,-3.22
2023-03-08T02:11:55.052Z,-3.33
2023-03-08T02:14:23.494Z,-3.23
2023-03-08T02:16:53.419Z,-3.18
2023-03-08T02:19:30.411Z,-3.14
2023-03-08T02:21:58.844Z,-3.14
2023-03-08T02:24:28.524Z,-3.28
2023-03-08T02:27:03.323Z,-3.08
2023-03-08T02:29:31.831Z,-3.17
2023-03-08T02:32:00.134Z,-3.09
2023-03-08T02:34:28.596Z,-3.16
2023-03-08T02:36:56.984Z,-2.88
2023-03-08T02:39:25.406Z,-2.80
2023-03-08T02:41:57.959Z,-2.86
2023-03-08T02:44:26.367Z,-2.90
2023-03-08T02:46:54.998Z,-2.83
2023-03-08T02:49:23.500Z,-2.79
2023-03-08T02:51:53.374Z,-2.79
2023-03-08T02:54:22.668Z,-2.73
2023-03-08T02:56:51.021Z,-2.64
2023-03-08T02:59:22.778Z,-2.53
2023-03-08T03:01:52.982Z,-2.52
2023-03-08T03:04:21.369Z,-2.38
2023-03-08T03:06:49.756Z,-2.27
2023-03-08T03:09:18.359Z,-2.16
2023-03-08T03:11:46.928Z,-2.14
2023-03-08T03:14:15.635Z,-2.06
2023-03-08T03:16:46.840Z,-2.12
2023-03-08T03:19:15.284Z,-2.17
2023-03-08T03:21:43.693Z,-2.20
2023-03-08T03:24:12.144Z,-2.23
2023-03-08T03:26:46.549Z,-2.02
2023-03-08T03:29:14.901Z,-2.01
2023-03-08T03:31:48.536Z,-2.04
2023-03-08T03:34:18.076Z,-2.08
2023-03-08T03:36:48.012Z,-1.85
2023-03-08T03:39:17.465Z,-1.77
2023-03-08T03:41:47.145Z,-1.71
2023-03-08T03:44:16.343Z,-1.78
2023-03-08T03:46:48.155Z,-1.78
2023-03-08T03:49:20.352Z,-1.62
2023-03-08T03:51:49.213Z,-1.58
2023-03-08T03:54:40.132Z,-1.67
2023-03-08T03:57:08.620Z,-1.57
2023-03-08T03:59:40.742Z,-1.68
2023-03-08T04:02:11.044Z,-1.51
2023-03-08T04:04:51.688Z,-1.50
2023-03-08T04:07:23.684Z,-1.59
2023-03-08T04:10:02.355Z,-1.50
2023-03-08T04:12:32.318Z,-1.47
2023-03-08T04:15:00.732Z,-1.40
2023-03-08T04:17:34.045Z,-1.40
2023-03-08T04:20:04.353Z,-1.40
2023-03-08T04:22:36.935Z,-1.36
2023-03-08T04:25:16.179Z,-1.34
2023-03-08T04:27:50.554Z,-1.49
2023-03-08T04:30:19.660Z,-1.34
2023-03-08T04:32:49.400Z,-1.31
2023-03-08T04:35:18.404Z,-1.68
2023-03-08T04:37:50.194Z,-1.20
2023-03-08T04:40:21.258Z,-1.16
2023-03-08T04:42:55.728Z,-1.14
2023-03-08T04:45:29.385Z,-1.38
2023-03-08T04:48:01.769Z,-1.14
2023-03-08T04:50:31.071Z,-1.13
2023-03-08T04:52:59.964Z,-1.20
2023-03-08T04:55:29.556Z,-1.05
2023-03-08T04:57:58.820Z,-1.08
2023-03-08T05:00:30.626Z,-1.10
2023-03-08T05:03:01.208Z,-1.05
2023-03-08T05:05:30.244Z,-1.04
2023-03-08T05:08:04.259Z,-1.02
2023-03-08T05:10:34.282Z,-1.05
2023-03-08T05:13:02.710Z,-1.14
2023-03-08T05:15:31.038Z,-1.26
2023-03-08T05:17:59.385Z,-1.12
2023-03-08T05:20:29.164Z,-1.11
2023-03-08T05:22:59.536Z,-1.22
2023-03-08T05:25:44.785Z,-1.08
2023-03-08T05:28:15.863Z,-1.14
2023-03-08T05:30:45.856Z,-1.19
2023-03-08T05:33:15.693Z,-1.42
2023-03-08T05:35:45.457Z,-1.14
2023-03-08T05:38:14.053Z,-1.21
2023-03-08T05:40:42.916Z,-1.07
2023-03-08T05:43:12.460Z,-1.10
2023-03-08T05:45:41.103Z,-1.12
2023-03-08T05:48:09.916Z,-1.18
2023-03-08T05:50:39.301Z,-1.16
2023-03-08T05:53:09.032Z,-1.11
2023-03-08T05:55:38.089Z,-1.18
2023-03-08T05:58:07.019Z,-1.37
2023-03-08T06:00:35.873Z,-1.14
2023-03-08T06:03:04.639Z,-1.21
2023-03-08T06:05:36.537Z,-1.17
2023-03-08T06:08:05.185Z,-1.40
2023-03-08T06:10:35.780Z,-1.29
2023-03-08T06:13:04.561Z,-1.28
2023-03-08T06:15:33.102Z,-1.24
2023-03-08T06:18:01.886Z,-1.29
2023-03-08T06:20:31.585Z,-1.30
2023-03-08T06:22:59.939Z,-1.23
2023-03-08T06:25:29.298Z,-1.13
2023-03-08T06:27:59.027Z,-1.15
2023-03-08T06:30:33.174Z,-1.05
2023-03-08T06:33:01.581Z,-1.20
2023-03-08T06:35:30.062Z,-1.13
2023-03-08T06:38:02.202Z,-1.13
2023-03-08T06:40:30.679Z,-1.35
2023-03-08T06:43:00.750Z,-1.32
2023-03-08T06:45:29.256Z,-1.43
2023-03-08T06:47:57.683Z,-1.37
2023-03-08T06:50:26.104Z,-1.51
2023-03-08T06:52:56.238Z,-2.24
2023-03-08T06:55:36.948Z,-1.68
2023-03-08T06:58:07.276Z,-1.82
2023-03-08T07:00:36.624Z,-1.57
2023-03-08T07:03:05.214Z,-1.53
2023-03-08T07:05:33.614Z,-1.62
2023-03-08T07:08:02.053Z,-1.60
2023-03-08T07:10:30.597Z,-1.82
2023-03-08T07:12:59.058Z,-1.60
2023-03-08T07:15:28.927Z,-1.69
2023-03-08T07:17:58.271Z,-1.65
2023-03-08T07:20:28.579Z,-1.62
2023-03-08T07:22:57.429Z,-1.54
2023-03-08T07:25:25.996Z,-1.61
2023-03-08T07:27:54.391Z,-1.49
2023-03-08T07:30:23.118Z,-1.77
2023-03-08T07:32:54.851Z,-1.50
2023-03-08T07:35:23.214Z,-1.49
2023-03-08T07:37:51.748Z,-1.68
2023-03-08T07:40:20.468Z,-1.59
2023-03-08T07:42:49.137Z,-1.61
2023-03-08T07:45:36.325Z,-1.61
2023-03-08T07:48:07.086Z,-1.79
2023-03-08T07:50:35.973Z,-1.54
2023-03-08T07:53:05.004Z,-1.65
2023-03-08T07:55:33.494Z,-1.62
2023-03-08T07:58:01.945Z,-1.92
2023-03-08T08:00:30.594Z,-1.77
2023-03-08T08:02:59.194Z,-1.79
2023-03-08T08:05:29.168Z,-1.98
2023-03-08T08:07:57.560Z,-1.83
2023-03-08T08:10:26.218Z,-1.85
2023-03-08T08:12:54.600Z,-1.85
2023-03-08T08:15:25.309Z,-2.04
2023-03-08T08:17:54.356Z,-2.09
2023-03-08T08:20:22.833Z,-2.17
2023-03-08T08:22:53.430Z,-2.23
2023-03-08T08:25:22.751Z,-2.16
2023-03-08T08:27:52.040Z,-2.31
2023-03-08T08:30:21.403Z,-2.22
2023-03-08T08:32:49.956Z,-2.15
2023-03-08T08:35:18.560Z,-2.35
2023-03-08T08:37:46.932Z,-2.23
2023-03-08T08:40:17.146Z,-2.02
2023-03-08T08:42:45.541Z,-2.20
2023-03-08T08:45:13.905Z,-1.99
2023-03-08T08:47:42.223Z,-2.05
2023-03-08T08:50:14.054Z,-2.09
2023-03-08T08:52:42.827Z,-2.13
2023-03-08T08:55:11.768Z,-2.22
2023-03-08T08:57:41.509Z,-2.25
2023-03-08T09:00:13.101Z,-2.38
2023-03-08T09:02:41.524Z,-2.48
2023-03-08T09:05:10.943Z,-2.51
2023-03-08T09:07:39.689Z,-2.34
2023-03-08T09:10:10.502Z,-2.27
2023-03-08T09:12:39.032Z,-2.17
2023-03-08T09:15:11.747Z,-2.22
2023-03-08T09:17:40.669Z,-2.24
2023-03-08T09:20:11.731Z,-2.04
2023-03-08T09:22:40.747Z,-2.11
2023-03-08T09:25:11.186Z,-2.09
2023-03-08T09:27:41.263Z,-2.23
2023-03-08T09:30:16.112Z,-1.86
2023-03-08T09:32:45.083Z,-1.78
2023-03-08T09:35:15.252Z,-1.63
2023-03-08T09:37:43.707Z,-1.53
2023-03-08T09:40:21.622Z,-1.34
2023-03-08T09:42:50.158Z,-1.39
2023-03-08T09:45:25.167Z,-1.33
2023-03-08T09:48:04.905Z,-1.13
2023-03-08T09:50:43.705Z,-0.88
2023-03-08T09:53:25.430Z,-0.84
2023-03-08T09:55:59.115Z,-0.83
2023-03-08T09:58:35.816Z,-0.39
2023-03-08T10:01:23.216Z,-0.11
2023-03-08T10:04:25.122Z,-0.21
2023-03-08T10:07:18.310Z,0.12
2023-03-08T10:09:54.105Z,0.49
2023-03-08T10:12:30.409Z,0.12
2023-03-08T10:15:04.890Z,0.53
2023-03-08T10:17:44.634Z,0.52
2023-03-08T10:20:21.131Z,0.72
2023-03-08T10:22:58.525Z,0.77
2023-03-08T10:25:31.330Z,0.76
2023-03-08T10:28:02.420Z,0.79
2023-03-08T10:30:38.206Z,1.00
2023-03-08T10:33:12.416Z,0.96
2023-03-08T10:35:58.113Z,0.91
2023-03-08T10:38:30.117Z,1.00
2023-03-08T10:41:07.733Z,1.00
2023-03-08T10:43:41.421Z,1.11
2023-03-08T10:46:16.049Z,1.35
2023-03-08T10:48:46.688Z,1.23
2023-03-08T10:51:20.753Z,1.32
2023-03-08T10:53:56.516Z,1.10
2023-03-08T10:56:32.555Z,1.37
2023-03-08T10:59:01.456Z,1.42
2023-03-08T11:01:32.636Z,1.49
2023-03-08T11:04:06.155Z,1.31
2023-03-08T11:06:36.325Z,1.25
2023-03-08T11:09:20.046Z,1.41
2023-03-08T11:11:48.872Z,1.24
2023-03-08T11:14:18.144Z,0.93
2023-03-08T11:16:56.368Z,0.54
2023-03-08T11:20:14.799Z,0.45
2023-03-08T11:23:08.200Z,0.78
2023-03-08T11:25:46.913Z,0.94
2023-03-08T11:28:45.816Z,1.13
2023-03-08T11:31:23.776Z,1.22
2023-03-08T11:34:21.925Z,1.13
2023-03-08T11:37:01.728Z,1.05
2023-03-08T11:39:36.815Z,0.83
2023-03-08T11:42:16.558Z,0.80
2023-03-08T11:45:07.475Z,0.89
2023-03-08T11:48:08.545Z,0.91
2023-03-08T11:50:43.244Z,0.78
2023-03-08T11:53:23.706Z,0.61
2023-03-08T11:56:43.951Z,0.59
2023-03-08T11:59:21.089Z,0.43
2023-03-08T12:01:53.929Z,0.43
2023-03-08T12:04:32.283Z,0.34
2023-03-08T12:07:06.440Z,0.48
2023-03-08T12:09:43.739Z,0.55
2023-03-08T12:12:19.963Z,0.81
2023-03-08T12:14:58.251Z,0.70
2023-03-08T12:17:32.710Z,0.91
2023-03-08T12:20:01.179Z,0.96
2023-03-08T12:22:44.723Z,0.97
2023-03-08T12:25:25.721Z,0.92
2023-03-08T12:28:01.627Z,0.74
2023-03-08T12:30:49.996Z,0.70
2023-03-08T12:33:19.494Z,0.59
2023-03-08T12:35:55.208Z,0.88
2023-03-08T12:38:35.398Z,0.63
2023-03-08T12:41:08.086Z,0.60
2023-03-08T12:43:38.711Z,0.63
2023-03-08T12:46:10.605Z,0.49
2023-03-08T12:48:48.730Z,0.56
2023-03-08T12:51:26.913Z,0.32
2023-03-08T12:54:02.675Z,0.36
2023-03-08T12:56:35.784Z,0.38
2023-03-08T12:59:33.914Z,0.25
2023-03-08T13:02:23.933Z,-0.03
2023-03-08T13:05:19.822Z,0.22
2023-03-08T13:08:21.351Z,0.22
2023-03-08T13:11:03.696Z,0.31
2023-03-08T13:13:44.889Z,0.36
2023-03-08T13:16:33.503Z,0.93
2023-03-08T13:19:26.096Z,0.89
2023-03-08T13:22:07.871Z,0.80
2023-03-08T13:24:48.497Z,0.73
2023-03-08T13:27:33.445Z,0.96
2023-03-08T13:30:23.673Z,0.67
2023-03-08T13:32:53.212Z,0.81
2023-03-08T13:35:22.479Z,0.98
2023-03-08T13:37:55.716Z,1.05
2023-03-08T13:40:25.812Z,0.95
2023-03-08T13:42:56.314Z,0.80
2023-03-08T13:45:27.395Z,0.95
2023-03-08T13:47:58.304Z,1.20
2023-03-08T13:50:32.641Z,1.05
2023-03-08T13:53:04.353Z,0.72
2023-03-08T13:55:36.581Z,0.92
2023-03-08T13:58:05.711Z,0.63
2023-03-08T14:00:36.941Z,0.73
2023-03-08T14:03:07.846Z,0.67
2023-03-08T14:05:44.157Z,0.47
2023-03-08T14:08:23.341Z,0.41
2023-03-08T14:10:57.924Z,0.59
2023-03-08T14:13:31.032Z,0.77
2023-03-08T14:16:03.343Z,0.66
2023-03-08T14:18:35.584Z,0.72
2023-03-08T14:21:08.593Z,0.36
2023-03-08T14:23:43.149Z,0.32
2023-03-08T14:26:34.267Z,0.18
2023-03-08T14:29:18.221Z,0.41
2023-03-08T14:32:01.631Z,0.25
2023-03-08T14:34:34.056Z,0.54
2023-03-08T14:37:07.090Z,0.29
2023-03-08T14:39:37.431Z,0.17
2023-03-08T14:42:20.034Z,0.46
2023-03-08T14:44:53.865Z,0.42
2023-03-08T14:47:27.504Z,0.32
2023-03-08T14:50:03.928Z,0.51
2023-03-08T14:52:36.071Z,0.53
2023-03-08T14:55:19.938Z,0.56
2023-03-08T14:57:48.362Z,0.49
2023-03-08T15:00:18.996Z,0.54
2023-03-08T15:02:48.964Z,0.51
2023-03-08T15:05:28.723Z,0.27
2023-03-08T15:08:00.483Z,0.36
2023-03-08T15:10:32.849Z,0.26
2023-03-08T15:13:01.986Z,0.24
2023-03-08T15:15:30.413Z,0.18
2023-03-08T15:18:00.125Z,-0.02
2023-03-08T15:20:28.616Z,0.10
2023-03-08T15:23:00.858Z,0.07
2023-03-08T15:25:32.195Z,0.23
2023-03-08T15:28:00.551Z,0.28
2023-03-08T15:30:31.690Z,0.07
2023-03-08T15:33:02.645Z,0.12
2023-03-08T15:35:31.740Z,0.15
2023-03-08T15:38:00.379Z,0.04
2023-03-08T15:40:31.936Z,-0.16
2023-03-08T15:43:01.022Z,0.02
2023-03-08T15:45:29.650Z,0.07
2023-03-08T15:48:01.078Z,-0.28
2023-03-08T15:50:30.872Z,-0.20
2023-03-08T15:52:59.878Z,-0.53
2023-03-08T15:55:32.085Z,-0.38
2023-03-08T15:58:00.849Z,-0.42
2023-03-08T16:00:30.279Z,-0.55
2023-03-08T16:03:00.190Z,-0.42
2023-03-08T16:05:29.173Z,-0.52
2023-03-08T16:07:59.974Z,-0.36
2023-03-08T16:10:30.226Z,-0.53
2023-03-08T16:12:58.923Z,-0.28
2023-03-08T16:15:27.552Z,-0.16
2023-03-08T16:17:56.682Z,-0.54
2023-03-08T16:20:27.680Z,-0.30
2023-03-08T16:22:57.719Z,-0.47
2023-03-08T16:25:27.515Z,-0.36
2023-03-08T16:27:57.237Z,-0.62
2023-03-08T16:30:29.294Z,-0.38
2023-03-08T16:33:00.260Z,-0.43
2023-03-08T16:35:33.908Z,-0.39
2023-03-08T16:38:04.046Z,-0.39
2023-03-08T16:40:33.753Z,-0.46
2023-03-08T16:43:02.314Z,-0.64
2023-03-08T16:45:30.927Z,-0.69
2023-03-08T16:47:59.428Z,-0.61
2023-03-08T16:50:30.048Z,-0.67
2023-03-08T16:52:59.571Z,-0.72
2023-03-08T16:55:28.002Z,-0.75
2023-03-08T16:57:56.524Z,-0.84
2023-03-08T17:00:27.147Z,-0.89
2023-03-08T17:02:55.525Z,-0.95
2023-03-08T17:05:23.928Z,-1.00
2023-03-08T17:07:53.653Z,-1.12
2023-03-08T17:10:22.146Z,-1.02
2023-03-08T17:12:50.846Z,-0.96
2023-03-08T17:15:19.270Z,-0.94
2023-03-08T17:17:47.652Z,-1.08
2023-03-08T17:20:16.060Z,-0.90
2023-03-08T17:22:45.058Z,-0.86
2023-03-08T17:25:14.805Z,-0.96
2023-03-08T17:27:43.159Z,-0.94
2023-03-08T17:30:14.198Z,-0.79
2023-03-08T17:32:42.842Z,-0.94
2023-03-08T17:35:11.592Z,-1.32
2023-03-08T17:37:41.618Z,-1.12
2023-03-08T17:40:12.437Z,-1.31
2023-03-08T17:42:42.535Z,-1.40
2023-03-08T17:45:12.050Z,-1.46
2023-03-08T17:47:40.638Z,-1.52
2023-03-08T17:50:13.864Z,-1.44
2023-03-08T17:52:42.637Z,-1.58
2023-03-08T17:55:12.342Z,-1.46
2023-03-08T17:57:42.177Z,-1.90
2023-03-08T18:00:12.613Z,-1.58
2023-03-08T18:02:40.993Z,-1.62
2023-03-08T18:05:11.105Z,-1.61
2023-03-08T18:07:41.884Z,-1.80
2023-03-08T18:10:13.308Z,-1.60
2023-03-08T18:12:43.174Z,-1.59
2023-03-08T18:15:14.582Z,-1.56
2023-03-08T18:17:43.144Z,-1.54
2023-03-08T18:20:12.987Z,-1.49
2023-03-08T18:22:41.963Z,-1.55
2023-03-08T18:25:11.307Z,-1.57
2023-03-08T18:27:40.361Z,-1.59
2023-03-08T18:30:13.129Z,-1.63
2023-03-08T18:32:41.929Z,-1.72
2023-03-08T18:35:13.310Z,-1.48
2023-03-08T18:37:41.795Z,-1.50
2023-03-08T18:40:12.584Z,-1.49
2023-03-08T18:42:41.146Z,-1.50
2023-03-08T18:45:12.345Z,-1.42
2023-03-08T18:47:40.801Z,-1.44
2023-03-08T18:50:11.383Z,-1.46
2023-03-08T18:52:39.830Z,-1.54
2023-03-08T18:55:09.764Z,-1.68
2023-03-08T18:57:39.196Z,-1.87
2023-03-08T19:00:12.042Z,-1.86
2023-03-08T19:02:40.565Z,-1.87
2023-03-08T19:05:10.115Z,-1.76
2023-03-08T19:07:41.173Z,-1.97
2023-03-08T19:10:14.713Z,-1.81
2023-03-08T19:12:43.922Z,-1.74
2023-03-08T19:15:13.836Z,-1.79
2023-03-08T19:17:42.435Z,-1.95
2023-03-08T19:20:12.787Z,-1.94
2023-03-08T19:22:41.315Z,-1.86
2023-03-08T19:25:10.637Z,-1.73
2023-03-08T19:27:39.251Z,-1.80
2023-03-08T19:30:09.226Z,-1.78
2023-03-08T19:32:40.987Z,-1.79
2023-03-08T19:35:11.323Z,-1.90
2023-03-08T19:37:39.970Z,-1.90
2023-03-08T19:40:10.527Z,-2.03
2023-03-08T19:42:38.945Z,-1.93
2023-03-08T19:45:09.145Z,-1.88
2023-03-08T19:47:38.919Z,-1.88
2023-03-08T19:50:08.812Z,-1.90
2023-03-08T19:52:37.400Z,-1.92
2023-03-08T19:55:07.638Z,-1.96
2023-03-08T19:57:36.485Z,-1.77
2023-03-08T20:00:06.916Z,-2.21
2023-03-08T20:02:45.677Z,-2.10
2023-03-08T20:05:14.108Z,-2.29
2023-03-08T20:07:42.453Z,-2.40
2023-03-08T20:10:17.743Z,-2.32
2023-03-08T20:12:47.119Z,-2.01
2023-03-08T20:15:15.580Z,-2.08
2023-03-08T20:17:47.895Z,-2.02
2023-03-08T20:20:17.060Z,-2.01
2023-03-08T20:22:45.493Z,-2.06
2023-03-08T20:25:13.975Z,-2.10
2023-03-08T20:27:43.654Z,-2.22
2023-03-08T20:30:14.922Z,-2.14
2023-03-08T20:32:44.772Z,-2.15
2023-03-08T20:35:15.012Z,-2.25
2023-03-08T20:37:43.875Z,-2.23
2023-03-08T20:40:14.668Z,-2.45
2023-03-08T20:42:43.412Z,-2.08
2023-03-08T20:45:13.201Z,-2.23
2023-03-08T20:47:41.611Z,-1.97
2023-03-08T20:50:13.005Z,-2.06
2023-03-08T20:52:41.369Z,-1.94
2023-03-08T20:55:10.437Z,-1.88
2023-03-08T20:57:39.260Z,-1.86
2023-03-08T21:00:09.888Z,-2.03
2023-03-08T21:02:38.749Z,-2.02
2023-03-08T21:05:08.463Z,-2.05
2023-03-08T21:07:38.337Z,-1.99
2023-03-08T21:10:07.792Z,-2.07
2023-03-08T21:12:38.719Z,-2.29
2023-03-08T21:15:09.207Z,-2.07
2023-03-08T21:17:39.946Z,-2.24
2023-03-08T21:20:10.875Z,-2.35
2023-03-08T21:22:40.607Z,-2.16
2023-03-08T21:25:10.062Z,-2.24
2023-03-08T21:27:38.529Z,-2.11
2023-03-08T21:30:08.722Z,-2.11
2023-03-08T21:32:37.287Z,-2.22
2023-03-08T21:35:06.530Z,-2.35
2023-03-08T21:37:35.664Z,-2.20
2023-03-08T21:40:07.250Z,-2.20
2023-03-08T21:42:35.820Z,-2.08
2023-03-08T21:45:04.448Z,-2.01
2023-03-08T21:47:32.980Z,-2.08
2023-03-08T21:50:01.313Z,-2.45
2023-03-08T21:52:29.763Z,-2.01
2023-03-08T21:54:58.091Z,-2.17
2023-03-08T21:57:27.867Z,-2.40
2023-03-08T21:59:56.199Z,-2.11
2023-03-08T22:02:24.581Z,-2.30
2023-03-08T22:04:53.072Z,-2.19
2023-03-08T22:07:21.506Z,-2.14
2023-03-08T22:09:49.883Z,-2.29
2023-03-08T22:12:19.719Z,-2.35
2023-03-08T22:14:49.489Z,-2.36
2023-03-08T22:17:17.796Z,-2.59
2023-03-08T22:19:46.132Z,-2.32
2023-03-08T22:22:14.459Z,-2.30
2023-03-08T22:24:42.819Z,-2.41
2023-03-08T22:27:13.099Z,-2.16
2023-03-08T22:29:41.688Z,-2.18
2023-03-08T22:32:11.718Z,-1.96
2023-03-08T22:34:40.258Z,-1.98
2023-03-08T22:37:08.955Z,-2.30
2023-03-08T22:39:38.667Z,-1.96
2023-03-08T22:42:07.414Z,-2.44
2023-03-08T22:44:35.921Z,-1.93
2023-03-08T22:47:04.385Z,-1.82
2023-03-08T22:49:34.407Z,-2.65
2023-03-08T22:52:03.243Z,-2.35
2023-03-08T22:54:31.951Z,-1.88
2023-03-08T22:57:00.320Z,-2.07
2023-03-08T22:59:28.923Z,-2.79
2023-03-08T23:01:57.506Z,-2.06
2023-03-08T23:04:25.926Z,-3.30
2023-03-08T23:06:55.889Z,-2.07
2023-03-08T23:09:24.360Z,-2.13
2023-03-08T23:11:52.750Z,-2.52
2023-03-08T23:14:21.222Z,-2.43
2023-03-08T23:16:49.720Z,-2.23
2023-03-08T23:19:21.682Z,-2.22
2023-03-08T23:21:50.385Z,-2.16
2023-03-08T23:24:20.724Z,-2.13
2023-03-08T23:26:49.218Z,-2.10
2023-03-08T23:29:17.710Z,-2.00
2023-03-08T23:31:47.639Z,-2.04
2023-03-08T23:34:16.116Z,-2.04
2023-03-08T23:36:44.547Z,-2.17
2023-03-08T23:39:13.157Z,-2.11
2023-03-08T23:41:42.983Z,-2.15
2023-03-08T23:44:12.438Z,-2.33
2023-03-08T23:46:41.192Z,-2.20
2023-03-08T23:49:10.494Z,-2.06
2023-03-08T23:51:38.877Z,-2.10
2023-03-08T23:54:07.322Z,-2.14
2023-03-08T23:56:38.804Z,-2.09
2023-03-08T23:59:13.124Z,-2.20
